createdAt,value
2019-03-31T00:00:12.020Z,0
2019-03-31T00:01:21.949Z,0
2019-03-31T00:02:31.870Z,0
2019-03-31T00:03:41.797Z,0
2019-03-31T00:04:51.732Z,0
2019-03-31T00:06:01.654Z,0
2019-03-31T00:07:11.647Z,0
2019-03-31T00:08:21.582Z,0
2019-03-31T00:09:31.519Z,0
2019-03-31T00:10:40.947Z,0
2019-03-31T00:11:50.875Z,0
2019-03-31T00:13:00.792Z,0
2019-03-31T00:14:10.717Z,0
2019-03-31T00:15:20.648Z,0
2019-03-31T00:16:30.563Z,0
2019-03-31T00:17:40.482Z,0
2019-03-31T00:18:50.397Z,0
2019-03-31T00:20:00.401Z,0
2019-03-31T00:21:10.340Z,0
2019-03-31T00:22:20.265Z,0
2019-03-31T00:23:30.219Z,0
2019-03-31T00:24:40.236Z,0
2019-03-31T00:25:50.181Z,0
2019-03-31T00:27:00.101Z,0
2019-03-31T00:28:10.023Z,0
2019-03-31T00:29:19.947Z,0
2019-03-31T00:30:29.612Z,0
2019-03-31T00:31:39.537Z,0
2019-03-31T00:32:49.463Z,0
2019-03-31T00:33:59.380Z,0
2019-03-31T00:35:09.311Z,0
2019-03-31T00:36:18.984Z,0
2019-03-31T00:37:28.901Z,0
2019-03-31T00:38:38.821Z,0
2019-03-31T00:39:48.746Z,0
2019-03-31T00:40:58.668Z,0
2019-03-31T00:42:08.663Z,0
2019-03-31T00:43:18.343Z,0
2019-03-31T00:44:28.267Z,0
2019-03-31T00:45:38.243Z,0
2019-03-31T00:46:47.907Z,0
2019-03-31T00:47:57.838Z,0
2019-03-31T00:49:07.758Z,0
2019-03-31T00:50:17.678Z,0
2019-03-31T00:51:27.605Z,0
2019-03-31T00:52:37.598Z,0
2019-03-31T00:53:47.370Z,0
2019-03-31T00:54:57.042Z,0
2019-03-31T00:56:06.960Z,0
2019-03-31T00:57:16.934Z,0
2019-03-31T00:58:26.853Z,0
2019-03-31T00:59:36.918Z,0
2019-03-31T01:00:46.847Z,0
2019-03-31T01:01:56.775Z,0
2019-03-31T01:03:06.691Z,0
2019-03-31T01:04:16.357Z,0
2019-03-31T01:05:26.286Z,0
2019-03-31T01:06:36.204Z,0
2019-03-31T01:07:46.125Z,0
2019-03-31T01:08:56.040Z,0
2019-03-31T01:10:05.969Z,0
2019-03-31T01:11:15.928Z,0
2019-03-31T01:12:25.846Z,0
2019-03-31T01:13:35.763Z,0
2019-03-31T01:14:45.688Z,0
2019-03-31T01:15:55.606Z,0
2019-03-31T01:17:05.581Z,0
2019-03-31T01:18:15.517Z,0
2019-03-31T01:19:25.197Z,0
2019-03-31T01:20:35.114Z,0
2019-03-31T01:21:45.036Z,0
2019-03-31T01:22:55.002Z,0
2019-03-31T01:24:04.921Z,0
2019-03-31T01:25:14.841Z,0
2019-03-31T01:26:24.760Z,0
2019-03-31T01:27:34.689Z,0
2019-03-31T01:28:44.701Z,0
2019-03-31T01:29:54.621Z,0
2019-03-31T01:31:04.536Z,0
2019-03-31T01:32:14.471Z,0
2019-03-31T01:33:24.390Z,0
2019-03-31T01:34:34.313Z,0
2019-03-31T01:35:44.230Z,0
2019-03-31T01:36:54.154Z,0
2019-03-31T01:38:04.076Z,0
2019-03-31T01:39:13.993Z,0
2019-03-31T01:40:23.995Z,0
2019-03-31T01:41:33.980Z,0
2019-03-31T01:42:43.913Z,0
2019-03-31T01:43:53.829Z,0
2019-03-31T01:45:03.747Z,0
2019-03-31T01:46:13.673Z,0
2019-03-31T01:47:23.665Z,0
2019-03-31T01:48:33.605Z,0
2019-03-31T01:49:43.584Z,0
2019-03-31T01:50:53.507Z,0
2019-03-31T01:52:03.521Z,0
2019-03-31T01:53:13.439Z,0
2019-03-31T01:54:23.372Z,0
2019-03-31T01:55:33.293Z,0
2019-03-31T01:56:44.756Z,0
2019-03-31T01:57:54.902Z,0
2019-03-31T01:59:04.820Z,0
2019-03-31T02:00:14.738Z,0
2019-03-31T02:01:24.665Z,0
2019-03-31T02:02:34.633Z,0
2019-03-31T02:03:44.561Z,0
2019-03-31T02:04:54.239Z,0
2019-03-31T02:06:04.158Z,0
2019-03-31T02:07:13.821Z,0
2019-03-31T02:08:23.492Z,0
2019-03-31T02:09:33.413Z,0
2019-03-31T02:10:43.345Z,0
2019-03-31T02:11:53.263Z,0
2019-03-31T02:13:03.179Z,0
2019-03-31T02:14:13.180Z,0
2019-03-31T02:15:23.204Z,0
2019-03-31T02:16:33.210Z,0
2019-03-31T02:17:43.128Z,0
2019-03-31T02:18:53.056Z,0
2019-03-31T02:20:02.977Z,0
2019-03-31T02:21:12.911Z,0
2019-03-31T02:22:22.838Z,0
2019-03-31T02:23:32.763Z,0
2019-03-31T02:24:42.681Z,0
2019-03-31T02:25:52.652Z,0
2019-03-31T02:27:02.680Z,0
2019-03-31T02:28:12.611Z,0
2019-03-31T02:29:22.280Z,0
2019-03-31T02:30:32.295Z,0
2019-03-31T02:31:42.260Z,0
2019-03-31T02:32:52.295Z,0
2019-03-31T02:34:02.247Z,0
2019-03-31T02:35:12.276Z,0
2019-03-31T02:36:22.268Z,0
2019-03-31T02:37:32.309Z,0
2019-03-31T02:38:42.243Z,0
2019-03-31T02:39:52.174Z,0
2019-03-31T02:41:02.155Z,0
2019-03-31T02:42:12.090Z,0
2019-03-31T02:43:22.029Z,0
2019-03-31T02:44:31.994Z,0
2019-03-31T02:45:41.980Z,0
2019-03-31T02:46:51.944Z,0
2019-03-31T02:48:01.890Z,0
2019-03-31T02:49:11.826Z,0
2019-03-31T02:50:21.888Z,0
2019-03-31T02:51:31.936Z,0
2019-03-31T02:52:41.878Z,0
2019-03-31T02:53:51.817Z,0
2019-03-31T02:55:01.763Z,0
2019-03-31T02:56:11.709Z,0
2019-03-31T02:57:21.637Z,0
2019-03-31T02:58:31.594Z,0
2019-03-31T02:59:41.533Z,0
2019-03-31T03:00:51.473Z,0
2019-03-31T03:02:01.519Z,0
2019-03-31T03:03:11.445Z,0
2019-03-31T03:04:21.139Z,0
2019-03-31T03:05:31.077Z,0
2019-03-31T03:06:41.013Z,0
2019-03-31T03:07:51.045Z,0
2019-03-31T03:09:00.985Z,0
2019-03-31T03:10:10.934Z,0
2019-03-31T03:11:20.892Z,0
2019-03-31T03:12:30.819Z,0
2019-03-31T03:13:40.753Z,0
2019-03-31T03:14:50.700Z,0
2019-03-31T03:16:00.640Z,0
2019-03-31T03:17:10.575Z,0
2019-03-31T03:18:20.523Z,0
2019-03-31T03:19:30.473Z,0
2019-03-31T03:20:40.402Z,0
2019-03-31T03:21:50.348Z,0
2019-03-31T03:23:00.267Z,0
2019-03-31T03:24:10.206Z,0
2019-03-31T03:25:20.192Z,0
2019-03-31T03:26:30.145Z,0
2019-03-31T03:27:40.087Z,0
2019-03-31T03:28:50.062Z,0
2019-03-31T03:29:59.756Z,0
2019-03-31T03:31:19.849Z,0
2019-03-31T03:32:30.178Z,0
2019-03-31T03:33:39.966Z,0
2019-03-31T03:34:49.940Z,0
2019-03-31T03:35:59.945Z,0
2019-03-31T03:37:09.877Z,0
2019-03-31T03:38:19.557Z,0
2019-03-31T03:39:29.477Z,0
2019-03-31T03:40:39.411Z,0
2019-03-31T03:41:49.342Z,0
2019-03-31T03:42:59.071Z,0
2019-03-31T03:44:09.956Z,0
2019-03-31T03:45:19.876Z,0
2019-03-31T03:46:29.975Z,0
2019-03-31T03:47:40.028Z,0
2019-03-31T03:48:50.074Z,0
2019-03-31T03:50:00.249Z,0
2019-03-31T03:51:10.581Z,0
2019-03-31T03:52:20.527Z,0
2019-03-31T03:53:30.486Z,0
2019-03-31T03:54:40.174Z,0
2019-03-31T03:55:50.105Z,0
2019-03-31T03:57:00.043Z,0
2019-03-31T03:58:09.736Z,0
2019-03-31T03:59:19.421Z,0
2019-03-31T04:00:29.530Z,0
2019-03-31T04:01:39.490Z,0
2019-03-31T04:02:49.448Z,0
2019-03-31T04:03:59.383Z,0
2019-03-31T04:05:09.403Z,0
2019-03-31T04:06:19.202Z,0
2019-03-31T04:07:29.140Z,4
2019-03-31T04:08:39.073Z,4
2019-03-31T04:09:49.001Z,0
2019-03-31T04:10:58.951Z,4
2019-03-31T04:12:08.965Z,4
2019-03-31T04:13:18.938Z,4
2019-03-31T04:14:28.885Z,8
2019-03-31T04:15:38.826Z,4
2019-03-31T04:16:48.795Z,8
2019-03-31T04:17:58.790Z,12
2019-03-31T04:19:08.737Z,12
2019-03-31T04:20:18.691Z,16
2019-03-31T04:21:28.632Z,12
2019-03-31T04:22:38.580Z,20
2019-03-31T04:23:48.621Z,20
2019-03-31T04:24:58.566Z,24
2019-03-31T04:26:08.498Z,28
2019-03-31T04:27:21.417Z,32
2019-03-31T04:28:31.357Z,40
2019-03-31T04:29:41.342Z,44
2019-03-31T04:30:51.373Z,52
2019-03-31T04:32:01.357Z,60
2019-03-31T04:33:11.326Z,64
2019-03-31T04:34:21.306Z,76
2019-03-31T04:35:31.355Z,88
2019-03-31T04:36:41.403Z,96
2019-03-31T04:37:51.351Z,112
2019-03-31T04:39:04.849Z,124
2019-03-31T04:40:14.783Z,140
2019-03-31T04:41:24.723Z,160
2019-03-31T04:42:34.651Z,172
2019-03-31T04:43:44.333Z,196
2019-03-31T04:44:54.265Z,212
2019-03-31T04:46:04.202Z,236
2019-03-31T04:47:14.299Z,256
2019-03-31T04:48:23.988Z,280
2019-03-31T04:49:33.932Z,304
2019-03-31T04:50:43.860Z,328
2019-03-31T04:51:53.775Z,356
2019-03-31T04:53:03.750Z,384
2019-03-31T04:54:13.683Z,420
2019-03-31T04:55:23.606Z,452
2019-03-31T04:56:33.548Z,484
2019-03-31T04:57:43.465Z,520
2019-03-31T04:58:53.389Z,564
2019-03-31T05:00:03.305Z,608
2019-03-31T05:01:13.238Z,652
2019-03-31T05:02:26.794Z,696
2019-03-31T05:03:36.916Z,736
2019-03-31T05:04:46.959Z,780
2019-03-31T05:05:56.880Z,824
2019-03-31T05:07:06.921Z,872
2019-03-31T05:08:16.837Z,916
2019-03-31T05:09:26.756Z,956
2019-03-31T05:10:36.770Z,1000
2019-03-31T05:11:46.698Z,1044
2019-03-31T05:12:56.615Z,1092
2019-03-31T05:14:06.541Z,1136
2019-03-31T05:15:16.477Z,1180
2019-03-31T05:16:26.394Z,1220
2019-03-31T05:17:38.231Z,1264
2019-03-31T05:18:48.160Z,1304
2019-03-31T05:19:58.082Z,1344
2019-03-31T05:21:08.077Z,1388
2019-03-31T05:22:17.743Z,1428
2019-03-31T05:23:27.657Z,1468
2019-03-31T05:24:37.580Z,1512
2019-03-31T05:25:47.494Z,1552
2019-03-31T05:26:57.417Z,1592
2019-03-31T05:28:07.415Z,1632
2019-03-31T05:29:17.363Z,1672
2019-03-31T05:30:27.311Z,1708
2019-03-31T05:31:37.094Z,1748
2019-03-31T05:32:47.022Z,1784
2019-03-31T05:33:56.789Z,1820
2019-03-31T05:35:06.714Z,1856
2019-03-31T05:36:16.641Z,1896
2019-03-31T05:37:26.633Z,1936
2019-03-31T05:38:36.560Z,1964
2019-03-31T05:39:46.629Z,2004
2019-03-31T05:40:56.319Z,2040
2019-03-31T05:42:06.238Z,2072
2019-03-31T05:43:16.156Z,2104
2019-03-31T05:44:26.073Z,2140
2019-03-31T05:45:36.053Z,2172
2019-03-31T05:46:45.979Z,2204
2019-03-31T05:47:55.899Z,2236
2019-03-31T05:49:05.915Z,2268
2019-03-31T05:50:15.849Z,2300
2019-03-31T05:51:25.767Z,2328
2019-03-31T05:52:35.684Z,2360
2019-03-31T05:53:45.674Z,2392
2019-03-31T05:54:55.586Z,2420
2019-03-31T05:56:05.587Z,2448
2019-03-31T05:57:15.265Z,2476
2019-03-31T05:58:24.939Z,2504
2019-03-31T05:59:34.862Z,2532
2019-03-31T06:00:44.562Z,2556
2019-03-31T06:01:54.524Z,2580
2019-03-31T06:03:04.539Z,2608
2019-03-31T06:04:14.454Z,2640
2019-03-31T06:05:24.375Z,2664
2019-03-31T06:06:36.879Z,2688
2019-03-31T06:07:47.136Z,2716
2019-03-31T06:08:57.151Z,2740
2019-03-31T06:10:07.066Z,2768
2019-03-31T06:11:16.995Z,2792
2019-03-31T06:12:26.918Z,2816
2019-03-31T06:13:36.582Z,2840
2019-03-31T06:14:46.498Z,2860
2019-03-31T06:15:56.415Z,2888
2019-03-31T06:17:06.081Z,2912
2019-03-31T06:18:15.996Z,2936
2019-03-31T06:19:25.911Z,2960
2019-03-31T06:20:35.880Z,2980
2019-03-31T06:21:45.802Z,3008
2019-03-31T06:22:55.725Z,3032
2019-03-31T06:24:05.651Z,3052
2019-03-31T06:25:15.758Z,3076
2019-03-31T06:26:25.469Z,3096
2019-03-31T06:27:35.382Z,3120
2019-03-31T06:28:45.306Z,3140
2019-03-31T06:29:55.227Z,3164
2019-03-31T06:31:05.142Z,3184
2019-03-31T06:32:15.081Z,3204
2019-03-31T06:33:24.998Z,3224
2019-03-31T06:34:49.245Z,3248
2019-03-31T06:35:59.161Z,3268
2019-03-31T06:37:08.932Z,3288
2019-03-31T06:38:18.861Z,3308
2019-03-31T06:39:28.776Z,3328
2019-03-31T06:40:41.898Z,3344
2019-03-31T06:41:51.565Z,3368
2019-03-31T06:43:01.581Z,3388
2019-03-31T06:44:11.512Z,3404
2019-03-31T06:45:21.430Z,3424
2019-03-31T06:46:31.368Z,3444
2019-03-31T06:47:41.041Z,3460
2019-03-31T06:48:50.954Z,3480
2019-03-31T06:50:00.872Z,3500
2019-03-31T06:51:10.794Z,3520
2019-03-31T06:52:20.461Z,3536
2019-03-31T06:53:30.382Z,3560
2019-03-31T06:54:40.350Z,3576
2019-03-31T06:55:50.287Z,3596
2019-03-31T06:57:00.206Z,3612
2019-03-31T06:58:10.133Z,3636
2019-03-31T06:59:20.051Z,3652
2019-03-31T07:00:29.974Z,3668
2019-03-31T07:01:39.909Z,3688
2019-03-31T07:02:49.825Z,3708
2019-03-31T07:03:59.741Z,3728
2019-03-31T07:05:09.666Z,3748
2019-03-31T07:06:19.682Z,3768
2019-03-31T07:07:30.962Z,3784
2019-03-31T07:08:40.893Z,3800
2019-03-31T07:09:50.819Z,3820
2019-03-31T07:11:00.752Z,3840
2019-03-31T07:12:10.769Z,3856
2019-03-31T07:13:20.689Z,3876
2019-03-31T07:14:30.628Z,3892
2019-03-31T07:15:40.543Z,3908
2019-03-31T07:16:50.227Z,3924
2019-03-31T07:18:00.247Z,3944
2019-03-31T07:19:10.167Z,3964
2019-03-31T07:20:20.122Z,3976
2019-03-31T07:21:30.097Z,3996
2019-03-31T07:22:40.022Z,4016
2019-03-31T07:23:49.948Z,4028
2019-03-31T07:24:59.863Z,4048
2019-03-31T07:26:09.780Z,4060
2019-03-31T07:27:19.700Z,4080
2019-03-31T07:28:29.452Z,4100
2019-03-31T07:29:39.421Z,4124
2019-03-31T07:30:49.088Z,4140
2019-03-31T07:31:59.013Z,4160
2019-03-31T07:33:08.941Z,4176
2019-03-31T07:34:18.863Z,4192
2019-03-31T07:35:28.884Z,4212
2019-03-31T07:36:38.813Z,4228
2019-03-31T07:37:54.892Z,4248
2019-03-31T07:39:05.476Z,4268
2019-03-31T07:40:16.472Z,4284
2019-03-31T07:41:28.196Z,4304
2019-03-31T07:42:38.871Z,4324
2019-03-31T07:43:48.792Z,4344
2019-03-31T07:44:58.720Z,4368
2019-03-31T07:46:08.637Z,4388
2019-03-31T07:47:18.614Z,4412
2019-03-31T07:48:28.543Z,4424
2019-03-31T07:49:38.463Z,4444
2019-03-31T07:50:48.491Z,4468
2019-03-31T07:51:58.422Z,4492
2019-03-31T07:53:08.351Z,4508
2019-03-31T07:54:18.276Z,4532
2019-03-31T07:55:28.196Z,4564
2019-03-31T07:56:38.175Z,4580
2019-03-31T07:57:48.164Z,4604
2019-03-31T07:58:58.405Z,4624
2019-03-31T08:00:08.460Z,4644
2019-03-31T08:01:18.443Z,4676
2019-03-31T08:02:28.362Z,4704
2019-03-31T08:03:38.290Z,4736
2019-03-31T08:04:48.309Z,4764
2019-03-31T08:05:58.225Z,4800
2019-03-31T08:07:08.151Z,4836
2019-03-31T08:08:18.067Z,4864
2019-03-31T08:09:27.990Z,4896
2019-03-31T08:10:38.039Z,4944
2019-03-31T08:11:47.958Z,4980
2019-03-31T08:12:57.878Z,5012
2019-03-31T08:14:07.805Z,5048
2019-03-31T08:15:17.747Z,5084
2019-03-31T08:16:27.688Z,5124
2019-03-31T08:17:37.622Z,5156
2019-03-31T08:18:50.384Z,5196
2019-03-31T08:20:00.352Z,5248
2019-03-31T08:21:10.301Z,5264
2019-03-31T08:22:20.017Z,5316
2019-03-31T08:23:29.691Z,5340
2019-03-31T08:24:39.627Z,5368
2019-03-31T08:25:49.556Z,5404
2019-03-31T08:26:59.473Z,5428
2019-03-31T08:28:13.112Z,5452
2019-03-31T08:29:23.037Z,5464
2019-03-31T08:30:32.958Z,5484
2019-03-31T08:31:42.879Z,5508
2019-03-31T08:32:52.794Z,5536
2019-03-31T08:34:02.729Z,5552
2019-03-31T08:35:12.655Z,5568
2019-03-31T08:36:22.574Z,5572
2019-03-31T08:37:32.492Z,5592
2019-03-31T08:38:42.428Z,5604
2019-03-31T08:39:52.217Z,5628
2019-03-31T08:41:02.145Z,5640
2019-03-31T08:42:12.081Z,5660
2019-03-31T08:43:21.995Z,5680
2019-03-31T08:44:31.927Z,5688
2019-03-31T08:45:41.842Z,5704
2019-03-31T08:46:51.764Z,5724
2019-03-31T08:48:01.682Z,5732
2019-03-31T08:49:11.605Z,5748
2019-03-31T08:50:21.600Z,5764
2019-03-31T08:51:31.516Z,5784
2019-03-31T08:52:41.434Z,5808
2019-03-31T08:53:51.357Z,5808
2019-03-31T08:55:01.273Z,5824
2019-03-31T08:56:13.602Z,5844
2019-03-31T08:57:23.574Z,5856
2019-03-31T08:58:33.487Z,5864
2019-03-31T08:59:43.411Z,5880
2019-03-31T09:00:53.339Z,5892
2019-03-31T09:02:05.820Z,5904
2019-03-31T09:03:15.756Z,5924
2019-03-31T09:04:25.674Z,5940
2019-03-31T09:05:35.608Z,5952
2019-03-31T09:06:45.553Z,5972
2019-03-31T09:07:55.478Z,5984
2019-03-31T09:09:05.498Z,6016
2019-03-31T09:10:15.434Z,6016
2019-03-31T09:11:25.351Z,6036
2019-03-31T09:12:35.268Z,6052
2019-03-31T09:13:45.187Z,6088
2019-03-31T09:14:55.168Z,6096
2019-03-31T09:16:05.095Z,6100
2019-03-31T09:17:15.020Z,6112
2019-03-31T09:18:24.935Z,6128
2019-03-31T09:19:34.972Z,6136
2019-03-31T09:20:44.987Z,6140
2019-03-31T09:21:54.905Z,6160
2019-03-31T09:23:04.833Z,6188
2019-03-31T09:24:14.503Z,6204
2019-03-31T09:25:24.435Z,6220
2019-03-31T09:26:34.507Z,6244
2019-03-31T09:27:44.437Z,6280
2019-03-31T09:28:54.363Z,6348
2019-03-31T09:30:04.392Z,6352
2019-03-31T09:31:14.316Z,6340
2019-03-31T09:32:24.288Z,6360
2019-03-31T09:33:34.210Z,6388
2019-03-31T09:34:47.098Z,6388
2019-03-31T09:35:57.029Z,6400
2019-03-31T09:37:07.010Z,6420
2019-03-31T09:38:17.031Z,6456
2019-03-31T09:39:26.953Z,6476
2019-03-31T09:40:36.888Z,6524
2019-03-31T09:41:46.806Z,6532
2019-03-31T09:42:56.756Z,6560
2019-03-31T09:44:06.788Z,6588
2019-03-31T09:45:16.719Z,6628
2019-03-31T09:46:26.647Z,6632
2019-03-31T09:47:36.613Z,6632
2019-03-31T09:48:46.535Z,6644
2019-03-31T09:49:56.254Z,6656
2019-03-31T09:51:06.181Z,6672
2019-03-31T09:52:16.106Z,6676
2019-03-31T09:53:26.042Z,6672
2019-03-31T09:54:35.961Z,6708
2019-03-31T09:55:46.129Z,6720
2019-03-31T09:56:56.046Z,6784
2019-03-31T09:58:05.984Z,6820
2019-03-31T09:59:15.901Z,6856
2019-03-31T10:00:25.830Z,6860
2019-03-31T10:01:35.757Z,6972
2019-03-31T10:02:45.679Z,6828
2019-03-31T10:03:55.602Z,6808
2019-03-31T10:05:05.519Z,6868
2019-03-31T10:06:32.086Z,6872
2019-03-31T10:07:42.002Z,6856
2019-03-31T10:08:51.927Z,6872
2019-03-31T10:10:01.847Z,6888
2019-03-31T10:11:11.783Z,6924
2019-03-31T10:12:21.558Z,6936
2019-03-31T10:13:31.513Z,6896
2019-03-31T10:14:41.447Z,6892
2019-03-31T10:15:51.367Z,6892
2019-03-31T10:17:01.291Z,6916
2019-03-31T10:18:11.212Z,6952
2019-03-31T10:19:21.134Z,6996
2019-03-31T10:20:34.012Z,7000
2019-03-31T10:21:43.942Z,6972
2019-03-31T10:22:53.861Z,6936
2019-03-31T10:24:03.831Z,6924
2019-03-31T10:25:15.775Z,6932
2019-03-31T10:26:38.253Z,6960
2019-03-31T10:27:48.176Z,6976
2019-03-31T10:28:58.091Z,6996
2019-03-31T10:30:08.016Z,7008
2019-03-31T10:31:17.950Z,7016
2019-03-31T10:32:27.886Z,7004
2019-03-31T10:33:37.818Z,7008
2019-03-31T10:34:47.751Z,7024
2019-03-31T10:35:57.725Z,7036
2019-03-31T10:37:07.648Z,7056
2019-03-31T10:38:17.572Z,7084
2019-03-31T10:39:27.491Z,7108
2019-03-31T10:40:37.558Z,7140
2019-03-31T10:41:47.476Z,7144
2019-03-31T10:42:57.407Z,7148
2019-03-31T10:44:07.329Z,7140
2019-03-31T10:45:17.248Z,7140
2019-03-31T10:46:27.177Z,7164
2019-03-31T10:47:37.096Z,7196
2019-03-31T10:48:47.013Z,7204
2019-03-31T10:49:56.930Z,7200
2019-03-31T10:51:06.852Z,7208
2019-03-31T10:52:16.768Z,7220
2019-03-31T10:53:26.704Z,7256
2019-03-31T10:54:36.467Z,7260
2019-03-31T10:55:46.393Z,7268
2019-03-31T10:56:56.324Z,7240
2019-03-31T10:58:06.349Z,7240
2019-03-31T10:59:16.272Z,7312
2019-03-31T11:00:26.201Z,7280
2019-03-31T11:01:36.144Z,7284
2019-03-31T11:02:46.072Z,7320
2019-03-31T11:03:55.989Z,7348
2019-03-31T11:05:06.009Z,7376
2019-03-31T11:06:15.943Z,7444
2019-03-31T11:07:25.624Z,7480
2019-03-31T11:08:35.554Z,7532
2019-03-31T11:09:45.473Z,7600
2019-03-31T11:10:55.467Z,7636
2019-03-31T11:12:05.387Z,7632
2019-03-31T11:13:15.318Z,7800
2019-03-31T11:14:25.252Z,8468
2019-03-31T11:15:35.225Z,22272
2019-03-31T11:16:45.156Z,58208
2019-03-31T11:17:55.078Z,61984
2019-03-31T11:19:05.065Z,60032
2019-03-31T11:20:14.996Z,60064
2019-03-31T11:21:25.026Z,57632
2019-03-31T11:22:34.705Z,56672
2019-03-31T11:23:44.700Z,59232
2019-03-31T11:24:54.705Z,61280
2019-03-31T11:26:04.623Z,59488
2019-03-31T11:27:14.558Z,57632
2019-03-31T11:28:24.491Z,60992
2019-03-31T11:29:34.159Z,59776
2019-03-31T11:30:44.085Z,60384
2019-03-31T11:31:54.127Z,62240
2019-03-31T11:33:07.239Z,64192
2019-03-31T11:34:19.637Z,63744
2019-03-31T11:35:29.488Z,64128
2019-03-31T11:36:39.412Z,64064
2019-03-31T11:37:49.344Z,61984
2019-03-31T11:38:59.378Z,60352
2019-03-31T11:40:09.311Z,63200
2019-03-31T11:41:19.239Z,64000
2019-03-31T11:42:29.169Z,59296
2019-03-31T11:43:39.190Z,58752
2019-03-31T11:44:49.119Z,61952
2019-03-31T11:45:59.054Z,62976
2019-03-31T11:47:09.061Z,60672
2019-03-31T11:48:19.021Z,57344
2019-03-31T11:49:28.966Z,59968
2019-03-31T11:50:38.956Z,61920
2019-03-31T11:51:48.894Z,60800
2019-03-31T11:52:58.837Z,62656
2019-03-31T11:54:08.517Z,61568
2019-03-31T11:55:18.198Z,64448
2019-03-31T11:56:28.134Z,63264
2019-03-31T11:57:38.064Z,63008
2019-03-31T11:58:48.025Z,61248
2019-03-31T11:59:57.967Z,64384
2019-03-31T12:01:08.077Z,65152
2019-03-31T12:02:31.638Z,63872
2019-03-31T12:03:41.577Z,61408
2019-03-31T12:04:51.537Z,59776
2019-03-31T12:06:01.474Z,55040
2019-03-31T12:07:11.164Z,57184
2019-03-31T12:08:34.881Z,61248
2019-03-31T12:09:44.823Z,58688
2019-03-31T12:10:54.756Z,57568
2019-03-31T12:12:04.758Z,57632
2019-03-31T12:13:14.690Z,57856
2019-03-31T12:14:24.625Z,56736
2019-03-31T12:15:34.558Z,58944
2019-03-31T12:16:44.495Z,63296
2019-03-31T12:17:54.455Z,40928
2019-03-31T12:19:04.492Z,65472
2019-03-31T12:20:14.422Z,67200
2019-03-31T12:21:24.377Z,64736
2019-03-31T12:22:34.368Z,65344
2019-03-31T12:23:44.064Z,62368
2019-03-31T12:24:54.046Z,62592
2019-03-31T12:26:03.986Z,62016
2019-03-31T12:27:13.931Z,59168
2019-03-31T12:28:23.879Z,59488
2019-03-31T12:29:33.826Z,58400
2019-03-31T12:30:43.873Z,58208
2019-03-31T12:31:53.815Z,58144
2019-03-31T12:33:03.769Z,57920
2019-03-31T12:34:13.719Z,60480
2019-03-31T12:35:23.658Z,60864
2019-03-31T12:36:33.705Z,58688
2019-03-31T12:37:50.076Z,57024
2019-03-31T12:39:01.239Z,60704
2019-03-31T12:40:11.217Z,61792
2019-03-31T12:41:22.995Z,58048
2019-03-31T12:42:32.987Z,60736
2019-03-31T12:43:42.920Z,61728
2019-03-31T12:44:52.855Z,62368
2019-03-31T12:46:02.887Z,61184
2019-03-31T12:47:12.819Z,61696
2019-03-31T12:48:22.759Z,61824
2019-03-31T12:49:32.703Z,62784
2019-03-31T12:50:42.673Z,62688
2019-03-31T12:51:55.061Z,62368
2019-03-31T12:53:05.197Z,55424
2019-03-31T12:54:15.268Z,57376
2019-03-31T12:55:25.211Z,58496
2019-03-31T12:56:35.148Z,56928
2019-03-31T12:57:45.076Z,56480
2019-03-31T12:58:55.030Z,56480
2019-03-31T13:00:05.173Z,58624
2019-03-31T13:01:14.867Z,59552
2019-03-31T13:02:24.802Z,59200
2019-03-31T13:03:34.736Z,53792
2019-03-31T13:04:44.665Z,57728
2019-03-31T13:05:54.705Z,63232
2019-03-31T13:07:04.639Z,59872
2019-03-31T13:08:14.574Z,62816
2019-03-31T13:09:24.509Z,61984
2019-03-31T13:10:34.198Z,63488
2019-03-31T13:11:44.390Z,64800
2019-03-31T13:12:57.941Z,64384
2019-03-31T13:14:07.873Z,67264
2019-03-31T13:15:17.819Z,68000
2019-03-31T13:16:27.754Z,67360
2019-03-31T13:17:37.545Z,64032
2019-03-31T13:18:47.568Z,63104
2019-03-31T13:19:57.258Z,64192
2019-03-31T13:21:07.193Z,63872
2019-03-31T13:22:17.146Z,61888
2019-03-31T13:23:27.083Z,60160
2019-03-31T13:24:37.018Z,57920
2019-03-31T13:25:46.954Z,58912
2019-03-31T13:26:56.894Z,57312
2019-03-31T13:28:10.402Z,55360
2019-03-31T13:29:20.344Z,54592
2019-03-31T13:30:30.039Z,52320
2019-03-31T13:31:39.975Z,53344
2019-03-31T13:32:49.938Z,47712
2019-03-31T13:33:59.872Z,48608
2019-03-31T13:35:13.137Z,47136
2019-03-31T13:36:23.084Z,48928
2019-03-31T13:37:32.765Z,48384
2019-03-31T13:38:42.703Z,46560
2019-03-31T13:39:52.638Z,29856
2019-03-31T13:41:02.679Z,33952
2019-03-31T13:42:12.611Z,42336
2019-03-31T13:43:22.552Z,48224
2019-03-31T13:44:32.514Z,41056
2019-03-31T13:45:42.449Z,38528
2019-03-31T13:46:52.497Z,45600
2019-03-31T13:48:05.810Z,39936
2019-03-31T13:49:15.741Z,24064
2019-03-31T13:50:25.751Z,26592
2019-03-31T13:51:35.688Z,24096
2019-03-31T13:52:45.718Z,27104
2019-03-31T13:53:55.648Z,25952
2019-03-31T13:55:05.574Z,25568
2019-03-31T13:56:17.736Z,29184
2019-03-31T13:57:31.945Z,24480
2019-03-31T13:58:52.221Z,17952
2019-03-31T14:00:02.919Z,39232
2019-03-31T14:01:12.663Z,38976
2019-03-31T14:02:22.712Z,45792
2019-03-31T14:03:32.400Z,42944
2019-03-31T14:04:56.753Z,21664
2019-03-31T14:06:06.685Z,22688
2019-03-31T14:07:16.623Z,21632
2019-03-31T14:08:32.994Z,30432
2019-03-31T14:09:42.978Z,36320
2019-03-31T14:10:52.913Z,33664
2019-03-31T14:12:02.839Z,33888
2019-03-31T14:13:12.765Z,35808
2019-03-31T14:14:22.690Z,43296
2019-03-31T14:15:32.741Z,44864
2019-03-31T14:16:42.668Z,46848
2019-03-31T14:17:52.601Z,45472
2019-03-31T14:19:02.539Z,45376
2019-03-31T14:20:12.473Z,44896
2019-03-31T14:21:22.514Z,44928
2019-03-31T14:22:32.440Z,42752
2019-03-31T14:23:43.903Z,46240
2019-03-31T14:24:54.003Z,56032
2019-03-31T14:26:03.931Z,66048
2019-03-31T14:27:13.712Z,66528
2019-03-31T14:28:23.702Z,66240
2019-03-31T14:29:33.652Z,69376
2019-03-31T14:30:43.581Z,72128
2019-03-31T14:31:56.876Z,68928
2019-03-31T14:33:06.811Z,65664
2019-03-31T14:34:16.751Z,65536
2019-03-31T14:35:26.694Z,64832
2019-03-31T14:36:36.695Z,63744
2019-03-31T14:37:46.628Z,64416
2019-03-31T14:38:56.564Z,67168
2019-03-31T14:40:06.504Z,66624
2019-03-31T14:41:16.443Z,65952
2019-03-31T14:42:26.389Z,69760
2019-03-31T14:43:36.323Z,67520
2019-03-31T14:44:46.363Z,64640
2019-03-31T14:45:56.300Z,63808
2019-03-31T14:47:06.244Z,66272
2019-03-31T14:48:16.194Z,55168
2019-03-31T14:49:28.322Z,46080
2019-03-31T14:50:38.360Z,65248
2019-03-31T14:51:48.318Z,66336
2019-03-31T14:52:58.003Z,66720
2019-03-31T14:54:07.956Z,66304
2019-03-31T14:55:17.982Z,65184
2019-03-31T14:56:27.917Z,65152
2019-03-31T14:57:37.851Z,64832
2019-03-31T14:58:47.780Z,63520
2019-03-31T14:59:57.714Z,63552
2019-03-31T15:01:23.868Z,59936
2019-03-31T15:02:33.806Z,59776
2019-03-31T15:03:43.753Z,59840
2019-03-31T15:04:53.697Z,59232
2019-03-31T15:06:03.640Z,58720
2019-03-31T15:07:13.574Z,58208
2019-03-31T15:08:23.522Z,57312
2019-03-31T15:09:33.454Z,58272
2019-03-31T15:10:43.387Z,58560
2019-03-31T15:11:53.333Z,59808
2019-03-31T15:13:03.368Z,59936
2019-03-31T15:14:13.313Z,60224
2019-03-31T15:15:23.251Z,58528
2019-03-31T15:16:33.271Z,55136
2019-03-31T15:17:43.210Z,55552
2019-03-31T15:18:53.260Z,56736
2019-03-31T15:20:03.193Z,54944
2019-03-31T15:21:13.131Z,56032
2019-03-31T15:22:23.100Z,53152
2019-03-31T15:23:36.388Z,52224
2019-03-31T15:24:46.418Z,52064
2019-03-31T15:25:56.353Z,52512
2019-03-31T15:27:06.281Z,51552
2019-03-31T15:28:15.978Z,49120
2019-03-31T15:29:25.912Z,48160
2019-03-31T15:30:35.906Z,50048
2019-03-31T15:31:45.838Z,50432
2019-03-31T15:32:55.790Z,49024
2019-03-31T15:34:05.724Z,49088
2019-03-31T15:35:15.658Z,51456
2019-03-31T15:36:25.640Z,48352
2019-03-31T15:37:35.586Z,39232
2019-03-31T15:38:45.522Z,34976
2019-03-31T15:39:55.458Z,29984
2019-03-31T15:41:05.403Z,29760
2019-03-31T15:42:28.602Z,35392
2019-03-31T15:43:38.551Z,29504
2019-03-31T15:44:48.485Z,23040
2019-03-31T15:45:58.422Z,18496
2019-03-31T15:47:08.359Z,11512
2019-03-31T15:48:18.398Z,9584
2019-03-31T15:49:28.352Z,8960
2019-03-31T15:50:38.276Z,9916
2019-03-31T15:51:48.233Z,9288
2019-03-31T15:52:58.191Z,7556